Knott, Texas
Current Conditions -  °F | °C
As of 12:15 PM on Thursday 23 Oct 2014 (Local Time) from KBPG Reporting Station
Overcast Overcast  
Wind Chill: 65°   Ceiling: 900
Heat Index: 65°   Visibility: 10mi
Dew Point: 59°   Wind: 5mph
Humidity: 81%   Direction: 170°S
Pressure: 30.2"   Gusts: NA
Location:  32.4°N, 101.64°W
Report Text: KBPG 231715Z AUTO 17004KT 10SM OVC009 18/15 A3020 RMK AO2 T01840151
Loading
Personal Weather Stations






























Interactive Weather Map
Tropical Storm Tracking
New forecast layout! Learn more

10-Day Weather Forecast

Advertisements
Track Severe Weather on mobile